モントリオール/トルドー の空港の天気 - METARとTAF

モントリオール・ピエール・エリオット・トルドー国際空港 ( CYUL / YUL ) - カナダ ケベック州モントリオール
飛行場実況気象(Metar)
観測時間08/16 02:00 EDT (08/16 06:00 UTC)
風向・風速北北西 4m/s
視程10km以上
天気現象
全天を覆う雲 雲底高度 1580m
気温21℃
湿度69%
気圧1014.2hPa
METARCYUL 160600Z 33007KT 15SM OVC052 21/15 A2994 RMK SC8 SLP142 DENSITY ALT 900FT
過去の天気等 Google飛行場航空写真 Wunderground天気予報

過去48時間のMETAR

飛行場予報(TAF)
発表時間: 8/16 01:39 EDT (8/16 05:39 UTC)
予報対象時間: 16日2時 EDT ~ 17日2時 EDT
風向・風速北西 4m/s
視程10km以上
全天の8割程度の雲 雲底高度 1520m
全天を覆う雲 雲底高度 2440m
16日6時 EDT から
風向・風速北 4m/s
視程10km以上
少しの雲 雲底高度 1520m
16日13時 EDT から
風向・風速西 4m/s
視程10km以上
少しの雲 雲底高度 1220m
16日14時 EDT ~ 16日16時 EDT に徐々に
風向・風速南 4m/s
16日19時 EDT から
風向・風速南 3m/s
視程10km以上
なし
TAF CYUL 160539Z 1606/1706 32007KT P6SM BKN050 OVC080
FM161000 01007KT P6SM FEW050
FM161700 26007KT P6SM FEW040
BECMG 1618/1620 19007KT
FM162300 19005KT P6SM SKC RMK NXT FCST BY 160900Z